createdAt,value
2023-01-30T00:00:00.810Z,1
2023-01-30T00:01:00.534Z,1
2023-01-30T00:02:00.322Z,1
2023-01-30T00:03:04.140Z,1
2023-01-30T00:04:02.588Z,1
2023-01-30T00:05:01.264Z,1
2023-01-30T00:06:01.372Z,1
2023-01-30T00:07:01.356Z,1
2023-01-30T00:08:01.364Z,1
2023-01-30T00:09:02.033Z,1
2023-01-30T00:10:02.443Z,1
2023-01-30T00:11:01.107Z,1
2023-01-30T00:12:01.119Z,1
2023-01-30T00:13:01.105Z,1
2023-01-30T00:14:01.132Z,1
2023-01-30T00:15:01.128Z,1
2023-01-30T00:16:01.308Z,1
2023-01-30T00:17:04.077Z,1
2023-01-30T00:18:01.583Z,1
2023-01-30T00:19:01.697Z,1
2023-01-30T00:20:01.253Z,1
2023-01-30T00:21:01.997Z,1
2023-01-30T00:22:01.201Z,1
2023-01-30T00:23:01.406Z,1
2023-01-30T00:24:01.987Z,1
2023-01-30T00:25:01.167Z,1
2023-01-30T00:26:04.402Z,1
2023-01-30T00:27:02.203Z,1
2023-01-30T00:28:01.129Z,1
2023-01-30T00:29:02.348Z,1
2023-01-30T00:30:03.369Z,1
2023-01-30T00:31:01.196Z,1
2023-01-30T00:32:01.126Z,1
2023-01-30T00:33:01.141Z,1
2023-01-30T00:34:01.132Z,1
2023-01-30T00:35:01.144Z,1
2023-01-30T00:36:01.265Z,1
2023-01-30T00:37:08.193Z,1
2023-01-30T00:38:01.175Z,1
2023-01-30T00:39:01.142Z,1
2023-01-30T00:40:01.082Z,1
2023-01-30T00:41:01.359Z,1
2023-01-30T00:42:02.606Z,1
2023-01-30T00:43:02.762Z,1
2023-01-30T00:44:01.765Z,1
2023-01-30T00:45:01.382Z,1
2023-01-30T00:46:01.160Z,1
2023-01-30T00:47:01.271Z,1
2023-01-30T00:48:01.130Z,1
2023-01-30T00:49:01.188Z,1
2023-01-30T00:50:01.138Z,1
2023-01-30T00:51:01.539Z,1
2023-01-30T00:52:01.198Z,1
2023-01-30T00:53:01.154Z,1
2023-01-30T00:54:01.140Z,1
2023-01-30T00:55:01.152Z,1
2023-01-30T00:56:01.796Z,1
2023-01-30T00:57:01.461Z,1
2023-01-30T00:58:01.229Z,1
2023-01-30T00:59:00.983Z,1
2023-01-30T01:00:00.721Z,1
2023-01-30T01:01:00.492Z,1
2023-01-30T01:02:00.309Z,1
2023-01-30T01:03:00.147Z,1
2023-01-30T01:04:02.943Z,1
2023-01-30T01:05:01.127Z,1
2023-01-30T01:06:01.603Z,1
2023-01-30T01:07:01.142Z,1
2023-01-30T01:08:01.150Z,1
2023-01-30T01:09:01.862Z,1
2023-01-30T01:10:01.152Z,1
2023-01-30T01:11:03.073Z,1
2023-01-30T01:12:01.161Z,1
2023-01-30T01:13:01.060Z,1
2023-01-30T01:14:00.713Z,1
2023-01-30T01:15:00.485Z,1
2023-01-30T01:16:05.218Z,1
2023-01-30T01:17:01.506Z,1
2023-01-30T01:18:01.228Z,1
2023-01-30T01:19:01.105Z,1
2023-01-30T01:20:01.083Z,1
2023-01-30T01:21:08.560Z,1
2023-01-30T01:22:01.862Z,1
2023-01-30T01:23:01.181Z,1
2023-01-30T01:24:01.162Z,1
2023-01-30T01:25:01.156Z,1
2023-01-30T01:26:11.894Z,1
2023-01-30T01:27:02.360Z,1
2023-01-30T01:28:01.166Z,1
2023-01-30T01:29:01.109Z,1
2023-01-30T01:30:02.567Z,1
2023-01-30T01:31:15.037Z,1
2023-01-30T01:32:02.631Z,1
2023-01-30T01:33:01.094Z,1
2023-01-30T01:34:01.112Z,1
2023-01-30T01:35:01.527Z,1
2023-01-30T01:36:02.581Z,1
2023-01-30T01:37:01.834Z,1
2023-01-30T01:38:01.064Z,1
2023-01-30T01:39:01.113Z,1
2023-01-30T01:40:01.138Z,1
2023-01-30T01:41:01.152Z,1
2023-01-30T01:42:00.858Z,1
2023-01-30T01:43:00.542Z,1
2023-01-30T01:44:00.272Z,1
2023-01-30T01:44:59.916Z,1
2023-01-30T01:45:59.703Z,1
2023-01-30T01:46:59.563Z,1
2023-01-30T01:48:01.298Z,1
2023-01-30T01:49:02.099Z,1
2023-01-30T01:50:01.135Z,1
2023-01-30T01:51:01.113Z,1
2023-01-30T01:52:01.116Z,1
2023-01-30T01:53:01.125Z,1
2023-01-30T01:54:01.273Z,1
2023-01-30T01:55:01.203Z,1
2023-01-30T01:56:01.158Z,1
2023-01-30T01:57:01.511Z,1
2023-01-30T01:58:01.129Z,1
2023-01-30T01:59:01.145Z,1
2023-01-30T02:00:01.943Z,1
2023-01-30T02:01:01.228Z,1
2023-01-30T02:02:01.119Z,1
2023-01-30T02:03:01.084Z,1
2023-01-30T02:04:01.076Z,1
2023-01-30T02:05:01.081Z,1
2023-01-30T02:06:01.180Z,1
2023-01-30T02:07:01.528Z,1
2023-01-30T02:08:03.031Z,1
2023-01-30T02:09:01.895Z,1
2023-01-30T02:10:01.341Z,1
2023-01-30T02:11:01.181Z,1
2023-01-30T02:12:00.836Z,1
2023-01-30T02:13:01.167Z,1
2023-01-30T02:14:01.189Z,1
2023-01-30T02:15:02.085Z,1
2023-01-30T02:16:01.531Z,1
2023-01-30T02:17:01.059Z,1
2023-01-30T02:18:01.077Z,1
2023-01-30T02:19:01.111Z,1
2023-01-30T02:20:01.814Z,1
2023-01-30T02:21:01.815Z,1
2023-01-30T02:22:02.335Z,1
2023-01-30T02:23:02.023Z,1
2023-01-30T02:24:02.011Z,1
2023-01-30T02:25:01.099Z,1
2023-01-30T02:26:01.110Z,1
2023-01-30T02:27:01.528Z,1
2023-01-30T02:28:01.122Z,1
2023-01-30T02:29:01.129Z,1
2023-01-30T02:30:00.130Z,1
2023-01-30T02:31:00.139Z,1
2023-01-30T02:31:59.819Z,1
2023-01-30T02:33:01.446Z,1
2023-01-30T02:34:01.481Z,1
2023-01-30T02:35:02.125Z,1
2023-01-30T02:36:01.481Z,1
2023-01-30T02:37:01.088Z,1
2023-01-30T02:38:01.651Z,1
2023-01-30T02:39:01.104Z,1
2023-01-30T02:40:01.104Z,1
2023-01-30T02:41:01.105Z,1
2023-01-30T02:42:01.119Z,1
2023-01-30T02:43:01.481Z,1
2023-01-30T02:44:01.276Z,1
2023-01-30T02:45:01.129Z,1
2023-01-30T02:46:01.145Z,1
2023-01-30T02:47:01.059Z,1
2023-01-30T02:48:01.160Z,1
2023-01-30T02:49:01.148Z,1
2023-01-30T02:50:01.157Z,1
2023-01-30T02:51:01.161Z,1
2023-01-30T02:52:01.237Z,1
2023-01-30T02:53:01.067Z,1
2023-01-30T02:54:01.049Z,1
2023-01-30T02:55:01.042Z,1
2023-01-30T02:56:01.060Z,1
2023-01-30T02:57:01.096Z,1
2023-01-30T02:58:01.111Z,1
2023-01-30T02:59:01.264Z,1
2023-01-30T03:00:01.158Z,1
2023-01-30T03:01:01.843Z,1
2023-01-30T03:02:01.125Z,1
2023-01-30T03:03:01.371Z,1
2023-01-30T03:04:01.558Z,1
2023-01-30T03:05:02.067Z,1
2023-01-30T03:06:01.921Z,1
2023-01-30T03:07:03.088Z,1
2023-01-30T03:08:00.577Z,1
2023-01-30T03:09:00.267Z,1
2023-01-30T03:09:59.949Z,1
2023-01-30T03:10:59.936Z,1
2023-01-30T03:12:05.014Z,1
2023-01-30T03:13:01.174Z,1
2023-01-30T03:14:01.655Z,1
2023-01-30T03:15:01.268Z,1
2023-01-30T03:16:01.155Z,1
2023-01-30T03:17:08.294Z,1
2023-01-30T03:18:01.129Z,1
2023-01-30T03:19:01.132Z,1
2023-01-30T03:20:01.147Z,1
2023-01-30T03:21:01.137Z,1
2023-01-30T03:22:11.166Z,1
2023-01-30T03:23:01.579Z,1
2023-01-30T03:24:01.182Z,1
2023-01-30T03:25:01.078Z,1
2023-01-30T03:26:01.201Z,1
2023-01-30T03:27:14.057Z,1
2023-01-30T03:28:01.108Z,1
2023-01-30T03:29:02.715Z,1
2023-01-30T03:30:02.649Z,1
2023-01-30T03:31:01.915Z,1
2023-01-30T03:32:16.685Z,1
2023-01-30T03:33:01.052Z,1
2023-01-30T03:34:01.063Z,1
2023-01-30T03:35:01.065Z,1
2023-01-30T03:36:01.057Z,1
2023-01-30T03:37:01.145Z,1
2023-01-30T03:38:02.195Z,1
2023-01-30T03:39:01.200Z,1
2023-01-30T03:40:01.467Z,1
2023-01-30T03:41:02.489Z,1
2023-01-30T03:42:01.460Z,1
2023-01-30T03:43:01.077Z,1
2023-01-30T03:44:01.097Z,1
2023-01-30T03:45:01.130Z,1
2023-01-30T03:46:01.130Z,1
2023-01-30T03:47:01.133Z,1
2023-01-30T03:48:01.128Z,1
2023-01-30T03:49:01.130Z,1
2023-01-30T03:50:01.123Z,1
2023-01-30T03:51:01.407Z,1
2023-01-30T03:52:01.435Z,1
2023-01-30T03:53:01.436Z,1
2023-01-30T03:54:01.150Z,1
2023-01-30T03:55:01.169Z,1
2023-01-30T03:56:01.174Z,1
2023-01-30T03:57:01.073Z,1
2023-01-30T03:58:01.393Z,1
2023-01-30T03:59:01.430Z,1
2023-01-30T04:00:01.157Z,1.1
2023-01-30T04:01:01.272Z,1.5
2023-01-30T04:02:01.115Z,2
2023-01-30T04:03:01.134Z,2.7
2023-01-30T04:04:01.118Z,2.8
2023-01-30T04:05:01.055Z,3.4
2023-01-30T04:06:01.139Z,3.7
2023-01-30T04:07:01.849Z,3.9
2023-01-30T04:08:01.527Z,4.4
2023-01-30T04:09:01.273Z,4.9
2023-01-30T04:10:02.225Z,4.8
2023-01-30T04:11:02.258Z,5.1
2023-01-30T04:12:01.059Z,5.3
2023-01-30T04:13:01.075Z,5.5
2023-01-30T04:14:01.096Z,5.5
2023-01-30T04:15:01.170Z,5.9
2023-01-30T04:16:00.814Z,6
2023-01-30T04:17:00.472Z,6.2
2023-01-30T04:18:00.174Z,6.4
2023-01-30T04:18:59.891Z,6.4
2023-01-30T04:19:59.572Z,6.6
2023-01-30T04:21:01.153Z,6.7
2023-01-30T04:22:01.165Z,7.1
2023-01-30T04:23:01.132Z,7.3
2023-01-30T04:24:01.141Z,7.6
2023-01-30T04:25:01.131Z,7.8
2023-01-30T04:26:01.544Z,8
2023-01-30T04:27:01.185Z,8.5
2023-01-30T04:28:01.608Z,8.7
2023-01-30T04:29:01.167Z,9
2023-01-30T04:30:01.073Z,9.1
2023-01-30T04:31:01.148Z,9.5
2023-01-30T04:32:01.143Z,10.1
2023-01-30T04:33:01.786Z,10.4
2023-01-30T04:34:02.158Z,10.7
2023-01-30T04:35:01.784Z,11.2
2023-01-30T04:36:01.095Z,11.5
2023-01-30T04:37:01.115Z,12
2023-01-30T04:38:01.499Z,12.3
2023-01-30T04:39:01.125Z,12.8
2023-01-30T04:40:01.137Z,13.2
2023-01-30T04:41:01.123Z,13.5
2023-01-30T04:42:01.156Z,13.8
2023-01-30T04:43:01.143Z,14
2023-01-30T04:44:01.167Z,14.6
2023-01-30T04:45:01.004Z,14.9
2023-01-30T04:46:01.254Z,15.2
2023-01-30T04:47:01.474Z,15.5
2023-01-30T04:48:01.088Z,15.7
2023-01-30T04:49:01.063Z,16
2023-01-30T04:50:01.067Z,16.2
2023-01-30T04:51:01.069Z,16.2
2023-01-30T04:52:01.406Z,16.2
2023-01-30T04:53:01.123Z,16.3
2023-01-30T04:54:01.857Z,16.4
2023-01-30T04:55:01.283Z,16.4
2023-01-30T04:56:01.306Z,16.2
2023-01-30T04:57:01.257Z,16.1
2023-01-30T04:58:02.854Z,16
2023-01-30T04:59:01.180Z,16
2023-01-30T05:00:01.148Z,15.9
2023-01-30T05:01:00.981Z,15.8
2023-01-30T05:02:01.861Z,15.8
2023-01-30T05:03:13.544Z,15.5
2023-01-30T05:04:01.642Z,15.4
2023-01-30T05:05:01.438Z,15.1
2023-01-30T05:06:02.099Z,15.2
2023-01-30T05:07:01.112Z,15.1
2023-01-30T05:08:08.469Z,15.1
2023-01-30T05:09:01.824Z,15
2023-01-30T05:10:01.124Z,15
2023-01-30T05:11:01.124Z,15
2023-01-30T05:12:01.141Z,14.9
2023-01-30T05:13:11.000Z,14.8
2023-01-30T05:14:01.590Z,14.9
2023-01-30T05:15:00.749Z,14.9
2023-01-30T05:16:00.584Z,14.9
2023-01-30T05:17:00.434Z,14.9
2023-01-30T05:18:14.104Z,14.8
2023-01-30T05:19:02.017Z,14.8
2023-01-30T05:20:02.574Z,14.6
2023-01-30T05:21:02.214Z,14.7
2023-01-30T05:22:01.817Z,14.6
2023-01-30T05:23:16.751Z,14.6
2023-01-30T05:24:08.767Z,14.5
2023-01-30T05:25:01.583Z,14.5
2023-01-30T05:26:01.555Z,14.5
2023-01-30T05:27:01.124Z,14.5
2023-01-30T05:28:01.853Z,14.4
2023-01-30T05:29:00.904Z,14.4
2023-01-30T05:30:01.573Z,14.6
2023-01-30T05:31:01.378Z,14.7
2023-01-30T05:32:01.718Z,14.6
2023-01-30T05:33:01.885Z,14.7
2023-01-30T05:34:01.303Z,14.7
2023-01-30T05:35:01.064Z,14.6
2023-01-30T05:36:01.100Z,14.6
2023-01-30T05:37:01.078Z,14.7
2023-01-30T05:38:01.091Z,14.6
2023-01-30T05:39:01.349Z,14.7
2023-01-30T05:40:01.203Z,14.8
2023-01-30T05:41:01.120Z,15
2023-01-30T05:42:01.104Z,14.9
2023-01-30T05:43:01.119Z,15
2023-01-30T05:44:01.181Z,14.8
2023-01-30T05:45:01.318Z,14.9
2023-01-30T05:46:01.414Z,15
2023-01-30T05:47:01.411Z,15.1
2023-01-30T05:48:02.069Z,15.2
2023-01-30T05:49:02.128Z,15.1
2023-01-30T05:50:00.863Z,15.4
2023-01-30T05:51:01.401Z,15.5
2023-01-30T05:52:01.256Z,15.5
2023-01-30T05:53:01.320Z,15.7
2023-01-30T05:54:01.480Z,15.5
2023-01-30T05:55:02.109Z,15.6
2023-01-30T05:56:01.122Z,15.7
2023-01-30T05:57:01.108Z,15.8
2023-01-30T05:58:01.697Z,15.9
2023-01-30T05:59:01.555Z,15.8
2023-01-30T06:00:01.967Z,15.8
2023-01-30T06:01:01.379Z,15.9
2023-01-30T06:02:01.135Z,15.8
2023-01-30T06:03:01.199Z,16
2023-01-30T06:04:01.205Z,16.1
2023-01-30T06:05:02.604Z,16.3
2023-01-30T06:06:01.174Z,16.3
2023-01-30T06:07:01.311Z,16.2
2023-01-30T06:08:01.325Z,16.3
2023-01-30T06:09:01.293Z,16.3
2023-01-30T06:10:01.917Z,16.4
2023-01-30T06:11:02.295Z,16.4
2023-01-30T06:12:01.929Z,16.4
2023-01-30T06:13:02.005Z,16.6
2023-01-30T06:14:01.284Z,16.7
2023-01-30T06:15:01.317Z,16.8
2023-01-30T06:16:02.630Z,16.8
2023-01-30T06:17:01.223Z,16.9
2023-01-30T06:18:01.145Z,16.9
2023-01-30T06:19:01.144Z,16.8
2023-01-30T06:20:01.068Z,16.8
2023-01-30T06:21:01.150Z,16.8
2023-01-30T06:22:01.280Z,16.7
2023-01-30T06:23:01.422Z,16.7
2023-01-30T06:24:02.043Z,16.7
2023-01-30T06:25:02.414Z,16.6
2023-01-30T06:26:03.330Z,16.6
2023-01-30T06:27:01.390Z,16.8
2023-01-30T06:28:02.110Z,16.9
2023-01-30T06:29:02.320Z,17
2023-01-30T06:30:01.207Z,17.2
2023-01-30T06:31:01.380Z,17.2
2023-01-30T06:32:01.104Z,17.3
2023-01-30T06:33:01.127Z,17.4
2023-01-30T06:34:02.330Z,17.5
2023-01-30T06:35:01.428Z,17.5
2023-01-30T06:36:03.079Z,17.7
2023-01-30T06:37:01.288Z,17.8
2023-01-30T06:38:01.279Z,18
2023-01-30T06:39:00.948Z,18
2023-01-30T06:40:01.198Z,18.3
2023-01-30T06:41:01.878Z,18.4
2023-01-30T06:42:02.152Z,18.6
2023-01-30T06:43:01.189Z,18.8
2023-01-30T06:44:03.359Z,18.7
2023-01-30T06:45:00.887Z,18.8
2023-01-30T06:46:01.253Z,19.1
2023-01-30T06:47:01.572Z,19.1
2023-01-30T06:48:02.034Z,19.3
2023-01-30T06:49:06.120Z,19.4
2023-01-30T06:50:01.286Z,19.4
2023-01-30T06:51:01.166Z,19.4
2023-01-30T06:52:01.187Z,19.4
2023-01-30T06:53:01.823Z,19.6
2023-01-30T06:54:10.279Z,19.8
2023-01-30T06:55:01.557Z,19.8
2023-01-30T06:56:01.523Z,19.7
2023-01-30T06:57:01.416Z,19.7
2023-01-30T06:58:01.504Z,19.7
2023-01-30T06:59:12.705Z,19.8
2023-01-30T07:00:01.295Z,19.9
2023-01-30T07:01:01.224Z,20
2023-01-30T07:02:01.992Z,20
2023-01-30T07:03:01.063Z,20.4
2023-01-30T07:04:16.132Z,20.6
2023-01-30T07:05:01.444Z,20.8
2023-01-30T07:06:02.253Z,21
2023-01-30T07:07:01.169Z,21.1
2023-01-30T07:08:01.341Z,21.8
2023-01-30T07:09:01.135Z,22.2
2023-01-30T07:10:08.257Z,22.6
2023-01-30T07:11:02.591Z,23.1
2023-01-30T07:12:00.843Z,23.3
2023-01-30T07:13:01.165Z,23.7
2023-01-30T07:14:01.689Z,24.2
2023-01-30T07:15:02.081Z,24.7
2023-01-30T07:16:02.093Z,25.3
2023-01-30T07:17:01.186Z,25.6
2023-01-30T07:18:01.215Z,25.8
2023-01-30T07:19:01.267Z,26.1
2023-01-30T07:20:01.575Z,26.7
2023-01-30T07:21:01.236Z,26.9
2023-01-30T07:22:03.215Z,27.8
2023-01-30T07:23:01.406Z,27.8
2023-01-30T07:24:01.344Z,27.8
2023-01-30T07:25:01.553Z,28
2023-01-30T07:26:01.141Z,28.1
2023-01-30T07:27:01.167Z,28.4
2023-01-30T07:28:01.197Z,28.3
2023-01-30T07:29:01.175Z,28.7
2023-01-30T07:30:01.055Z,28.9
2023-01-30T07:31:01.348Z,29.2
2023-01-30T07:32:01.506Z,29.3
2023-01-30T07:33:01.090Z,29.4
2023-01-30T07:34:01.064Z,29.6
2023-01-30T07:35:02.726Z,29.7
2023-01-30T07:36:01.146Z,30
2023-01-30T07:37:02.975Z,30.1
2023-01-30T07:38:01.560Z,30
2023-01-30T07:39:01.572Z,30
2023-01-30T07:40:00.539Z,30.3
2023-01-30T07:41:00.499Z,30.4
2023-01-30T07:42:00.351Z,30.7
2023-01-30T07:43:00.728Z,30.8
2023-01-30T07:44:00.723Z,30.9
2023-01-30T07:45:00.351Z,31.3
2023-01-30T07:45:59.935Z,31.3
2023-01-30T07:46:59.714Z,31.3
2023-01-30T07:48:01.465Z,31.3
2023-01-30T07:49:01.805Z,31.5
2023-01-30T07:50:01.437Z,31.9
2023-01-30T07:51:01.812Z,32.1
2023-01-30T07:52:01.617Z,32.5
2023-01-30T07:53:01.312Z,32.9
2023-01-30T07:54:02.927Z,33.1
2023-01-30T07:55:01.666Z,33.3
2023-01-30T07:56:01.124Z,33.7
2023-01-30T07:57:01.392Z,33.9
2023-01-30T07:58:02.378Z,34.3
2023-01-30T07:59:01.575Z,34.5
2023-01-30T08:00:02.104Z,34.6
2023-01-30T08:01:01.605Z,35.1
2023-01-30T08:02:01.364Z,35.6
2023-01-30T08:03:02.280Z,36.1
2023-01-30T08:04:01.706Z,36.5
2023-01-30T08:05:03.533Z,37.2
2023-01-30T08:06:01.588Z,37.6
2023-01-30T08:07:02.067Z,38.2
2023-01-30T08:08:01.848Z,39.2
2023-01-30T08:09:01.343Z,39.7
2023-01-30T08:10:01.976Z,40.5
2023-01-30T08:11:01.178Z,41.7
2023-01-30T08:12:01.323Z,42.6
2023-01-30T08:13:01.493Z,43.3
2023-01-30T08:14:01.186Z,43.4
2023-01-30T08:15:01.145Z,43.9
2023-01-30T08:16:03.987Z,44.4
2023-01-30T08:17:03.776Z,44.7
2023-01-30T08:18:01.069Z,45.2
2023-01-30T08:19:01.298Z,45.6
2023-01-30T08:20:01.189Z,45.8
2023-01-30T08:21:01.898Z,46.3
2023-01-30T08:22:01.131Z,46.4
2023-01-30T08:23:01.111Z,46.5
2023-01-30T08:24:01.560Z,46.5
2023-01-30T08:25:03.737Z,46.6
2023-01-30T08:26:01.210Z,47
2023-01-30T08:27:01.443Z,47.2
2023-01-30T08:28:01.399Z,47.1
2023-01-30T08:29:02.137Z,47.3
2023-01-30T08:30:08.137Z,47.4
2023-01-30T08:31:02.025Z,47.3
2023-01-30T08:32:01.240Z,47.2
2023-01-30T08:33:01.165Z,47.3
2023-01-30T08:34:01.173Z,47.2
2023-01-30T08:35:10.447Z,47.2
2023-01-30T08:36:04.022Z,47.3
2023-01-30T08:37:01.186Z,47.3
2023-01-30T08:38:01.313Z,47.4
2023-01-30T08:39:01.111Z,47.5
2023-01-30T08:40:13.279Z,47.5
2023-01-30T08:41:02.467Z,47.7
2023-01-30T08:42:01.230Z,47.7
2023-01-30T08:43:01.529Z,47.9
2023-01-30T08:44:01.605Z,47.9
2023-01-30T08:45:15.199Z,48
2023-01-30T08:46:02.277Z,48.2
2023-01-30T08:47:01.071Z,48.4
2023-01-30T08:48:01.163Z,48.7
2023-01-30T08:49:01.218Z,48.8
2023-01-30T08:50:01.471Z,48.6
2023-01-30T08:51:01.449Z,48.5
2023-01-30T08:52:01.233Z,48.5
2023-01-30T08:53:01.081Z,48.4
2023-01-30T08:54:01.345Z,48.4
2023-01-30T08:55:01.478Z,48.2
2023-01-30T08:56:02.009Z,48.3
2023-01-30T08:57:01.531Z,48.4
2023-01-30T08:58:02.016Z,48.6
2023-01-30T08:59:01.886Z,48.5
2023-01-30T09:00:00.735Z,48.6
2023-01-30T09:01:01.175Z,49
2023-01-30T09:02:01.201Z,49
2023-01-30T09:03:01.675Z,48.9
2023-01-30T09:04:01.592Z,49
2023-01-30T09:05:01.670Z,49.2
2023-01-30T09:06:01.350Z,49.2
2023-01-30T09:07:01.166Z,49.1
2023-01-30T09:08:01.287Z,49.2
2023-01-30T09:09:01.185Z,49.1
2023-01-30T09:10:01.080Z,48.9
2023-01-30T09:11:01.244Z,49.2
2023-01-30T09:12:01.743Z,49
2023-01-30T09:13:01.274Z,49
2023-01-30T09:14:01.415Z,48.7
2023-01-30T09:15:01.949Z,48.5
2023-01-30T09:16:01.128Z,48.3
2023-01-30T09:17:01.167Z,48.1
2023-01-30T09:18:01.519Z,47.8
2023-01-30T09:19:01.563Z,47.2
2023-01-30T09:20:01.385Z,46.8
2023-01-30T09:21:01.331Z,46.2
2023-01-30T09:22:01.157Z,45.5
2023-01-30T09:23:01.261Z,44.8
2023-01-30T09:24:01.168Z,44.2
2023-01-30T09:25:01.792Z,44.1
2023-01-30T09:26:01.186Z,44.1
2023-01-30T09:27:02.153Z,44.1
2023-01-30T09:28:01.377Z,43.8
2023-01-30T09:29:01.145Z,43.4
2023-01-30T09:30:01.116Z,43.1
2023-01-30T09:31:01.246Z,43.2
2023-01-30T09:32:02.358Z,43.2
2023-01-30T09:33:01.204Z,43.3
2023-01-30T09:34:01.884Z,43
2023-01-30T09:35:01.273Z,43.2
2023-01-30T09:36:01.160Z,41.5
2023-01-30T09:37:03.150Z,40.6
2023-01-30T09:38:01.147Z,40.3
2023-01-30T09:39:01.856Z,39.4
2023-01-30T09:40:00.960Z,39.2
2023-01-30T09:41:01.390Z,39.2
2023-01-30T09:42:01.316Z,38.4
2023-01-30T09:43:02.397Z,37.7
2023-01-30T09:44:02.823Z,37.7
2023-01-30T09:45:02.187Z,37.9
2023-01-30T09:46:01.681Z,37.4
2023-01-30T09:47:01.586Z,37.4
2023-01-30T09:48:02.537Z,37.4
2023-01-30T09:49:01.343Z,37.2
2023-01-30T09:50:01.137Z,37.4
2023-01-30T09:51:01.536Z,37.5
2023-01-30T09:52:01.234Z,37.7
2023-01-30T09:53:01.476Z,37.4
2023-01-30T09:54:01.336Z,37.4
2023-01-30T09:55:02.070Z,37.3
2023-01-30T09:56:01.040Z,37.3
2023-01-30T09:57:01.261Z,37.3
2023-01-30T09:58:01.418Z,37.3
2023-01-30T09:59:00.977Z,37.4
2023-01-30T10:00:01.425Z,37.5
2023-01-30T10:01:01.138Z,37.5
2023-01-30T10:02:01.740Z,37.4
2023-01-30T10:03:01.125Z,37.4
2023-01-30T10:04:00.841Z,37.3
2023-01-30T10:05:02.460Z,37.1
2023-01-30T10:06:04.297Z,36.8
2023-01-30T10:07:01.139Z,36.8
2023-01-30T10:08:01.406Z,37
2023-01-30T10:09:01.342Z,37
2023-01-30T10:10:02.326Z,36.9
2023-01-30T10:11:10.389Z,37
2023-01-30T10:12:02.188Z,36.9
2023-01-30T10:13:01.604Z,36.9
2023-01-30T10:14:02.103Z,36.8
2023-01-30T10:15:01.286Z,36.8
2023-01-30T10:16:08.337Z,36.6
2023-01-30T10:17:01.105Z,36.8
2023-01-30T10:18:01.446Z,36.6
2023-01-30T10:19:00.905Z,36.8
2023-01-30T10:20:00.617Z,36.8
2023-01-30T10:21:09.500Z,37
2023-01-30T10:22:01.515Z,37.1
2023-01-30T10:23:01.477Z,37.2
2023-01-30T10:24:01.760Z,37.5
2023-01-30T10:25:02.245Z,37.7
2023-01-30T10:26:13.580Z,37.8
2023-01-30T10:27:03.014Z,37.4
2023-01-30T10:28:01.202Z,37.2
2023-01-30T10:29:08.442Z,37.3
2023-01-30T10:30:01.613Z,37.3
2023-01-30T10:31:17.930Z,37.2
2023-01-30T10:32:01.425Z,37.3
2023-01-30T10:33:01.132Z,37.3
2023-01-30T10:34:00.770Z,37.3
2023-01-30T10:35:00.331Z,37.4
2023-01-30T10:35:59.993Z,37.3
2023-01-30T10:36:59.651Z,37
2023-01-30T10:38:01.329Z,37.2
2023-01-30T10:39:01.044Z,37.5
2023-01-30T10:40:00.885Z,37.7
2023-01-30T10:41:01.139Z,37.8
2023-01-30T10:42:01.145Z,38.2
2023-01-30T10:43:01.155Z,38.4
2023-01-30T10:44:00.754Z,38.5
2023-01-30T10:45:00.614Z,38.5
2023-01-30T10:46:00.288Z,38.2
2023-01-30T10:46:59.930Z,37.9
2023-01-30T10:47:59.632Z,37.9
2023-01-30T10:49:01.481Z,38.2
2023-01-30T10:50:01.077Z,38.5
2023-01-30T10:51:01.089Z,39
2023-01-30T10:52:01.135Z,39.4
2023-01-30T10:53:01.404Z,40
2023-01-30T10:54:00.693Z,40.3
2023-01-30T10:55:00.417Z,40.6
2023-01-30T10:56:00.155Z,40.8
2023-01-30T10:56:59.779Z,41.1
2023-01-30T10:58:01.640Z,41.3
2023-01-30T10:59:01.339Z,41.7
2023-01-30T11:00:01.140Z,42
2023-01-30T11:01:01.319Z,42.3
2023-01-30T11:02:01.735Z,42.8
2023-01-30T11:03:01.714Z,43.1
2023-01-30T11:04:02.186Z,43.5
2023-01-30T11:05:02.376Z,43.7
2023-01-30T11:06:01.147Z,44.5
2023-01-30T11:07:01.209Z,44.6
2023-01-30T11:08:01.241Z,45.3
2023-01-30T11:09:00.909Z,45.1
2023-01-30T11:10:01.098Z,45.1
2023-01-30T11:11:01.119Z,45.2
2023-01-30T11:12:01.231Z,45.3
2023-01-30T11:13:01.116Z,45.4
2023-01-30T11:14:00.791Z,45.2
2023-01-30T11:15:00.429Z,45.1
2023-01-30T11:16:00.060Z,45
2023-01-30T11:16:59.649Z,45
2023-01-30T11:18:24.264Z,45.1
2023-01-30T11:19:20.091Z,45.3
2023-01-30T11:20:01.399Z,45.3
2023-01-30T11:21:01.583Z,45.4
2023-01-30T11:22:01.110Z,45.6
2023-01-30T11:23:01.110Z,45.6
2023-01-30T11:24:00.791Z,45.5
2023-01-30T11:25:00.597Z,45.5
2023-01-30T11:26:10.931Z,45.6
2023-01-30T11:27:01.399Z,45.2
2023-01-30T11:28:01.309Z,45.3
2023-01-30T11:29:01.135Z,45.7
2023-01-30T11:30:01.266Z,45.6
2023-01-30T11:31:01.288Z,45.6
2023-01-30T11:32:01.577Z,45.6
2023-01-30T11:33:01.067Z,45.4
2023-01-30T11:34:00.735Z,44.8
2023-01-30T11:35:00.885Z,44.8
2023-01-30T11:36:02.343Z,44.7
2023-01-30T11:37:01.891Z,44.6
2023-01-30T11:38:02.103Z,44.6
2023-01-30T11:39:00.609Z,44.8
2023-01-30T11:40:00.381Z,44.8
2023-01-30T11:41:00.112Z,44.8
2023-01-30T11:42:03.399Z,44.9
2023-01-30T11:43:01.365Z,45.6
2023-01-30T11:44:02.564Z,46
2023-01-30T11:45:17.301Z,46.1
2023-01-30T11:46:01.621Z,46.2
2023-01-30T11:47:07.638Z,46.1
2023-01-30T11:48:04.886Z,46
2023-01-30T11:49:32.161Z,46
2023-01-30T11:50:23.652Z,46
2023-01-30T11:51:01.983Z,46.3
2023-01-30T11:52:11.371Z,46.3
2023-01-30T11:53:01.214Z,46.5
2023-01-30T11:54:01.739Z,46.7
2023-01-30T11:55:01.126Z,46.7
2023-01-30T11:56:06.335Z,47.1
2023-01-30T11:57:15.572Z,47.1
2023-01-30T11:58:01.312Z,47
2023-01-30T11:59:01.371Z,47.1
2023-01-30T12:00:01.874Z,46.4
2023-01-30T12:01:02.937Z,46
2023-01-30T12:02:01.155Z,45.8
2023-01-30T12:03:01.153Z,46
2023-01-30T12:04:01.271Z,46.6
2023-01-30T12:05:01.080Z,46.4
2023-01-30T12:06:01.268Z,45.7
2023-01-30T12:07:01.057Z,45.2
2023-01-30T12:08:01.279Z,45.2
2023-01-30T12:09:01.246Z,44.8
2023-01-30T12:10:01.070Z,44.3
2023-01-30T12:11:01.370Z,44.3
2023-01-30T12:12:01.071Z,43.1
2023-01-30T12:13:01.350Z,42
2023-01-30T12:14:02.101Z,41.6
2023-01-30T12:15:02.115Z,41.5
2023-01-30T12:16:01.322Z,40.4
2023-01-30T12:17:01.109Z,39.9
2023-01-30T12:18:01.109Z,39.8
2023-01-30T12:19:00.853Z,39.6
2023-01-30T12:20:00.550Z,39
2023-01-30T12:21:00.329Z,38.3
2023-01-30T12:22:00.004Z,38.2
2023-01-30T12:22:59.596Z,38
2023-01-30T12:24:01.287Z,37.7
2023-01-30T12:25:00.967Z,37.5
2023-01-30T12:26:00.980Z,37.2
2023-01-30T12:27:01.515Z,37
2023-01-30T12:28:01.092Z,36.9
2023-01-30T12:29:01.511Z,36.2
2023-01-30T12:30:01.097Z,35.8
2023-01-30T12:31:01.053Z,35
2023-01-30T12:32:01.101Z,34.5
2023-01-30T12:34:07.994Z,33.2
2023-01-30T12:35:01.593Z,33.2
2023-01-30T12:36:01.238Z,32.8
2023-01-30T12:37:01.128Z,32.1
2023-01-30T12:38:01.144Z,32.2
2023-01-30T12:39:00.842Z,30.7
2023-01-30T12:40:00.583Z,30
2023-01-30T12:41:00.332Z,29.8
2023-01-30T12:42:00.213Z,29.5
2023-01-30T12:42:59.817Z,29
2023-01-30T12:44:02.444Z,28.7
2023-01-30T12:45:02.737Z,27.6
2023-01-30T12:46:01.902Z,27
2023-01-30T12:47:01.095Z,26.6
2023-01-30T12:48:01.102Z,26.5
2023-01-30T12:49:11.344Z,25.8
2023-01-30T12:50:01.108Z,25.6
2023-01-30T12:51:01.504Z,25.3
2023-01-30T12:52:01.125Z,25.1
2023-01-30T12:53:01.120Z,24.3
2023-01-30T12:54:00.720Z,23.6
2023-01-30T12:55:00.327Z,23.6
2023-01-30T12:56:00.049Z,23.2
2023-01-30T12:56:59.826Z,23.5
2023-01-30T12:58:01.459Z,23.4
2023-01-30T12:59:01.162Z,23.1
2023-01-30T13:00:01.501Z,23.4
2023-01-30T13:01:00.971Z,23.8
2023-01-30T13:02:01.397Z,21.7
2023-01-30T13:03:01.299Z,21.1
2023-01-30T13:04:01.627Z,20.8
2023-01-30T13:05:04.675Z,21
2023-01-30T13:06:01.300Z,20.5
2023-01-30T13:07:01.112Z,20.8
2023-01-30T13:08:01.543Z,20.5
2023-01-30T13:09:00.802Z,20
2023-01-30T13:10:00.430Z,20
2023-01-30T13:11:00.120Z,20
2023-01-30T13:11:59.693Z,20
2023-01-30T13:13:01.996Z,20
2023-01-30T13:14:01.262Z,20
2023-01-30T13:15:01.073Z,20.5
2023-01-30T13:16:01.123Z,20.5
2023-01-30T13:17:01.322Z,20.6
2023-01-30T13:18:01.713Z,20.6
2023-01-30T13:19:01.716Z,20
2023-01-30T13:20:02.227Z,20
2023-01-30T13:21:01.443Z,20.2
2023-01-30T13:22:01.123Z,20.3
2023-01-30T13:23:04.368Z,20.3
2023-01-30T13:24:01.432Z,20.9
2023-01-30T13:25:02.566Z,20.8
2023-01-30T13:26:01.323Z,21.2
2023-01-30T13:27:02.044Z,21.2
2023-01-30T13:28:07.676Z,21.2
2023-01-30T13:29:00.730Z,21.2
2023-01-30T13:30:00.352Z,21.2
2023-01-30T13:31:00.144Z,21
2023-01-30T13:31:59.986Z,21.2
2023-01-30T13:33:09.308Z,21.2
2023-01-30T13:34:01.489Z,21.2
2023-01-30T13:35:02.021Z,21.9
2023-01-30T13:36:01.127Z,22.2
2023-01-30T13:37:01.101Z,22.2
2023-01-30T13:38:11.711Z,22.7
2023-01-30T13:39:00.802Z,23.3
2023-01-30T13:40:00.406Z,23.6
2023-01-30T13:41:00.090Z,23.8
2023-01-30T13:41:59.933Z,23.7
2023-01-30T13:43:13.123Z,23.8
2023-01-30T13:44:00.846Z,24.3
2023-01-30T13:45:04.577Z,24.7
2023-01-30T13:46:01.173Z,24.6
2023-01-30T13:47:01.220Z,25
2023-01-30T13:48:16.627Z,25.1
2023-01-30T13:49:02.077Z,24.9